sensor_id;sensor_type;location;lat;lon;timestamp;pressure;altitude;pressure_sealevel;temperature;humidity
2405;BME280;1213;43.206;27.922;2024-03-25T00:00:54;99795.03;;;11.39;100.00
2405;BME280;1213;43.206;27.922;2024-03-25T00:03:19;99793.66;;;11.14;100.00
2405;BME280;1213;43.206;27.922;2024-03-25T00:05:45;99799.88;;;10.92;100.00
2405;BME280;1213;43.206;27.922;2024-03-25T00:08:10;99798.19;;;10.70;100.00
2405;BME280;1213;43.206;27.922;2024-03-25T00:10:35;99791.72;;;10.53;100.00
2405;BME280;1213;43.206;27.922;2024-03-25T00:13:02;99803.34;;;10.40;100.00
2405;BME280;1213;43.206;27.922;2024-03-25T00:15:27;99806.25;;;10.25;100.00
2405;BME280;1213;43.206;27.922;2024-03-25T00:17:53;99796.09;;;10.21;100.00
2405;BME280;1213;43.206;27.922;2024-03-25T00:20:18;99776.91;;;10.09;100.00
2405;BME280;1213;43.206;27.922;2024-03-25T00:22:44;99777.31;;;9.93;100.00
2405;BME280;1213;43.206;27.922;2024-03-25T00:25:09;99769.78;;;9.89;100.00
2405;BME280;1213;43.206;27.922;2024-03-25T00:27:35;99776.59;;;9.80;100.00
2405;BME280;1213;43.206;27.922;2024-03-25T00:30:01;99770.78;;;9.77;100.00
2405;BME280;1213;43.206;27.922;2024-03-25T00:32:26;99783.28;;;9.73;100.00
2405;BME280;1213;43.206;27.922;2024-03-25T00:34:52;99785.56;;;9.66;100.00
2405;BME280;1213;43.206;27.922;2024-03-25T00:37:17;99783.19;;;9.63;100.00
2405;BME280;1213;43.206;27.922;2024-03-25T00:39:43;99789.50;;;9.61;100.00
2405;BME280;1213;43.206;27.922;2024-03-25T00:42:08;99786.88;;;9.61;100.00
2405;BME280;1213;43.206;27.922;2024-03-25T00:44:33;99793.69;;;9.52;100.00
2405;BME280;1213;43.206;27.922;2024-03-25T00:46:59;99784.88;;;9.53;100.00
2405;BME280;1213;43.206;27.922;2024-03-25T00:49:25;99790.94;;;9.54;100.00
2405;BME280;1213;43.206;27.922;2024-03-25T00:51:51;99787.00;;;9.48;100.00
2405;BME280;1213;43.206;27.922;2024-03-25T00:54:17;99785.94;;;9.39;100.00
2405;BME280;1213;43.206;27.922;2024-03-25T00:56:42;99785.56;;;9.44;100.00
2405;BME280;1213;43.206;27.922;2024-03-25T00:59:09;99780.91;;;9.36;100.00
2405;BME280;1213;43.206;27.922;2024-03-25T01:01:34;99788.66;;;9.27;100.00
2405;BME280;1213;43.206;27.922;2024-03-25T01:04:04;99776.63;;;9.24;100.00
2405;BME280;1213;43.206;27.922;2024-03-25T01:06:29;99778.63;;;9.09;100.00
2405;BME280;1213;43.206;27.922;2024-03-25T01:08:55;99788.41;;;9.07;100.00
2405;BME280;1213;43.206;27.922;2024-03-25T01:11:20;99790.53;;;9.02;100.00
2405;BME280;1213;43.206;27.922;2024-03-25T01:13:47;99797.44;;;9.03;100.00
2405;BME280;1213;43.206;27.922;2024-03-25T01:16:12;99796.91;;;8.87;100.00
2405;BME280;1213;43.206;27.922;2024-03-25T01:18:38;99786.41;;;8.76;100.00
2405;BME280;1213;43.206;27.922;2024-03-25T01:21:03;99784.41;;;8.79;100.00
2405;BME280;1213;43.206;27.922;2024-03-25T01:23:30;99778.66;;;8.74;100.00
2405;BME280;1213;43.206;27.922;2024-03-25T01:25:55;99780.59;;;8.83;100.00
2405;BME280;1213;43.206;27.922;2024-03-25T01:28:21;99788.00;;;8.89;100.00
2405;BME280;1213;43.206;27.922;2024-03-25T01:30:46;99785.34;;;8.78;100.00
2405;BME280;1213;43.206;27.922;2024-03-25T01:33:12;99783.97;;;8.97;100.00
2405;BME280;1213;43.206;27.922;2024-03-25T01:35:38;99784.59;;;8.76;100.00
2405;BME280;1213;43.206;27.922;2024-03-25T01:38:03;99798.44;;;8.78;100.00
2405;BME280;1213;43.206;27.922;2024-03-25T01:40:29;99809.63;;;8.69;100.00
2405;BME280;1213;43.206;27.922;2024-03-25T01:43:01;99803.06;;;8.75;100.00
2405;BME280;1213;43.206;27.922;2024-03-25T01:45:32;99809.44;;;8.59;100.00
2405;BME280;1213;43.206;27.922;2024-03-25T01:48:01;99817.66;;;8.55;100.00
2405;BME280;1213;43.206;27.922;2024-03-25T01:50:27;99817.69;;;8.66;100.00
2405;BME280;1213;43.206;27.922;2024-03-25T01:52:54;99821.75;;;8.70;100.00
2405;BME280;1213;43.206;27.922;2024-03-25T01:55:25;99826.38;;;8.67;100.00
2405;BME280;1213;43.206;27.922;2024-03-25T01:57:51;99829.69;;;8.69;100.00
2405;BME280;1213;43.206;27.922;2024-03-25T02:00:17;99830.72;;;8.79;100.00
2405;BME280;1213;43.206;27.922;2024-03-25T02:02:43;99829.78;;;8.91;100.00
2405;BME280;1213;43.206;27.922;2024-03-25T02:05:16;99832.56;;;9.01;100.00
2405;BME280;1213;43.206;27.922;2024-03-25T02:07:43;99818.97;;;8.96;100.00
2405;BME280;1213;43.206;27.922;2024-03-25T02:10:09;99826.00;;;9.06;100.00
2405;BME280;1213;43.206;27.922;2024-03-25T02:12:36;99817.81;;;9.11;100.00
2405;BME280;1213;43.206;27.922;2024-03-25T02:15:02;99817.34;;;9.17;100.00
2405;BME280;1213;43.206;27.922;2024-03-25T02:17:29;99824.63;;;9.25;100.00
2405;BME280;1213;43.206;27.922;2024-03-25T02:19:55;99820.09;;;9.27;100.00
2405;BME280;1213;43.206;27.922;2024-03-25T02:22:20;99838.00;;;9.33;100.00
2405;BME280;1213;43.206;27.922;2024-03-25T02:24:46;99837.16;;;9.32;100.00
2405;BME280;1213;43.206;27.922;2024-03-25T02:27:14;99838.13;;;9.42;100.00
2405;BME280;1213;43.206;27.922;2024-03-25T02:29:41;99839.31;;;9.38;100.00
2405;BME280;1213;43.206;27.922;2024-03-25T02:32:10;99837.75;;;9.36;100.00
2405;BME280;1213;43.206;27.922;2024-03-25T02:34:44;99839.41;;;9.37;100.00
2405;BME280;1213;43.206;27.922;2024-03-25T02:37:11;99836.19;;;9.33;100.00
2405;BME280;1213;43.206;27.922;2024-03-25T02:39:36;99831.66;;;9.35;100.00
2405;BME280;1213;43.206;27.922;2024-03-25T02:42:02;99812.72;;;9.32;100.00
2405;BME280;1213;43.206;27.922;2024-03-25T02:44:28;99813.19;;;9.37;100.00
2405;BME280;1213;43.206;27.922;2024-03-25T02:46:55;99818.22;;;9.40;100.00
2405;BME280;1213;43.206;27.922;2024-03-25T02:49:20;99827.75;;;9.41;100.00
2405;BME280;1213;43.206;27.922;2024-03-25T02:51:45;99820.00;;;9.39;100.00
2405;BME280;1213;43.206;27.922;2024-03-25T02:54:11;99806.19;;;9.49;100.00
2405;BME280;1213;43.206;27.922;2024-03-25T02:56:37;99802.72;;;9.48;100.00
2405;BME280;1213;43.206;27.922;2024-03-25T02:59:03;99795.69;;;9.49;100.00
2405;BME280;1213;43.206;27.922;2024-03-25T03:01:28;99800.09;;;9.48;100.00
2405;BME280;1213;43.206;27.922;2024-03-25T03:03:53;99795.56;;;9.50;100.00
2405;BME280;1213;43.206;27.922;2024-03-25T03:06:19;99792.59;;;9.55;100.00
2405;BME280;1213;43.206;27.922;2024-03-25T03:08:45;99782.22;;;9.64;100.00
2405;BME280;1213;43.206;27.922;2024-03-25T03:11:10;99776.25;;;9.73;100.00
2405;BME280;1213;43.206;27.922;2024-03-25T03:13:36;99774.59;;;9.72;100.00
2405;BME280;1213;43.206;27.922;2024-03-25T03:16:01;99764.34;;;9.69;100.00
2405;BME280;1213;43.206;27.922;2024-03-25T03:18:27;99774.47;;;9.63;100.00
2405;BME280;1213;43.206;27.922;2024-03-25T03:20:52;99776.97;;;9.64;100.00
2405;BME280;1213;43.206;27.922;2024-03-25T03:23:21;99782.00;;;9.67;100.00
2405;BME280;1213;43.206;27.922;2024-03-25T03:25:46;99778.41;;;9.68;100.00
2405;BME280;1213;43.206;27.922;2024-03-25T03:28:12;99779.00;;;9.72;100.00
2405;BME280;1213;43.206;27.922;2024-03-25T03:30:37;99784.13;;;9.62;100.00
2405;BME280;1213;43.206;27.922;2024-03-25T03:33:03;99784.84;;;9.31;100.00
2405;BME280;1213;43.206;27.922;2024-03-25T03:35:28;99774.09;;;9.11;100.00
2405;BME280;1213;43.206;27.922;2024-03-25T03:37:53;99777.56;;;9.01;100.00
2405;BME280;1213;43.206;27.922;2024-03-25T03:40:19;99798.97;;;8.95;100.00
2405;BME280;1213;43.206;27.922;2024-03-25T03:42:44;99804.06;;;8.85;100.00
2405;BME280;1213;43.206;27.922;2024-03-25T03:45:10;99788.53;;;8.71;100.00
2405;BME280;1213;43.206;27.922;2024-03-25T03:47:35;99793.97;;;8.56;100.00
2405;BME280;1213;43.206;27.922;2024-03-25T03:50:01;99791.56;;;8.53;100.00
2405;BME280;1213;43.206;27.922;2024-03-25T03:52:26;99787.97;;;8.30;100.00
2405;BME280;1213;43.206;27.922;2024-03-25T03:54:52;99778.06;;;8.23;100.00
2405;BME280;1213;43.206;27.922;2024-03-25T03:57:17;99780.91;;;8.20;100.00
2405;BME280;1213;43.206;27.922;2024-03-25T03:59:43;99777.69;;;8.16;100.00
2405;BME280;1213;43.206;27.922;2024-03-25T04:02:08;99774.88;;;8.06;100.00
2405;BME280;1213;43.206;27.922;2024-03-25T04:04:34;99769.44;;;8.10;100.00
2405;BME280;1213;43.206;27.922;2024-03-25T04:07:02;99772.69;;;8.00;100.00
2405;BME280;1213;43.206;27.922;2024-03-25T04:09:27;99770.06;;;8.13;100.00
2405;BME280;1213;43.206;27.922;2024-03-25T04:11:54;99768.81;;;8.06;100.00
2405;BME280;1213;43.206;27.922;2024-03-25T04:14:20;99766.44;;;8.27;100.00
2405;BME280;1213;43.206;27.922;2024-03-25T04:16:45;99760.09;;;8.18;100.00
2405;BME280;1213;43.206;27.922;2024-03-25T04:19:12;99753.59;;;8.24;100.00
2405;BME280;1213;43.206;27.922;2024-03-25T04:21:38;99758.06;;;8.22;100.00
2405;BME280;1213;43.206;27.922;2024-03-25T04:24:04;99755.34;;;8.23;100.00
2405;BME280;1213;43.206;27.922;2024-03-25T04:26:30;99756.41;;;8.21;100.00
2405;BME280;1213;43.206;27.922;2024-03-25T04:28:55;99760.41;;;8.14;100.00
2405;BME280;1213;43.206;27.922;2024-03-25T04:31:21;99762.31;;;8.12;100.00
2405;BME280;1213;43.206;27.922;2024-03-25T04:33:46;99768.38;;;8.12;100.00
2405;BME280;1213;43.206;27.922;2024-03-25T04:36:12;99771.13;;;8.11;100.00
2405;BME280;1213;43.206;27.922;2024-03-25T04:38:38;99761.38;;;8.13;100.00
2405;BME280;1213;43.206;27.922;2024-03-25T04:41:04;99762.03;;;8.03;100.00
2405;BME280;1213;43.206;27.922;2024-03-25T04:43:29;99757.47;;;8.18;100.00
2405;BME280;1213;43.206;27.922;2024-03-25T04:45:55;99762.34;;;8.23;100.00
2405;BME280;1213;43.206;27.922;2024-03-25T04:48:20;99754.63;;;8.21;100.00
2405;BME280;1213;43.206;27.922;2024-03-25T04:50:46;99747.28;;;8.26;100.00
2405;BME280;1213;43.206;27.922;2024-03-25T04:53:12;99765.22;;;8.20;100.00
2405;BME280;1213;43.206;27.922;2024-03-25T04:55:37;99763.38;;;8.09;100.00
2405;BME280;1213;43.206;27.922;2024-03-25T04:58:03;99770.22;;;8.23;100.00
2405;BME280;1213;43.206;27.922;2024-03-25T05:00:28;99777.09;;;8.37;100.00
2405;BME280;1213;43.206;27.922;2024-03-25T05:02:54;99777.81;;;8.39;100.00
2405;BME280;1213;43.206;27.922;2024-03-25T05:05:20;99780.53;;;8.37;100.00
2405;BME280;1213;43.206;27.922;2024-03-25T05:07:46;99783.56;;;8.44;100.00
2405;BME280;1213;43.206;27.922;2024-03-25T05:10:11;99776.66;;;8.43;100.00
2405;BME280;1213;43.206;27.922;2024-03-25T05:12:38;99771.53;;;8.41;100.00
2405;BME280;1213;43.206;27.922;2024-03-25T05:15:04;99773.72;;;8.34;100.00
2405;BME280;1213;43.206;27.922;2024-03-25T05:17:31;99772.50;;;8.27;100.00
2405;BME280;1213;43.206;27.922;2024-03-25T05:19:56;99770.19;;;8.36;100.00
2405;BME280;1213;43.206;27.922;2024-03-25T05:22:22;99775.19;;;8.39;100.00
2405;BME280;1213;43.206;27.922;2024-03-25T05:24:47;99778.44;;;8.29;100.00
2405;BME280;1213;43.206;27.922;2024-03-25T05:27:13;99781.75;;;8.20;100.00
2405;BME280;1213;43.206;27.922;2024-03-25T05:29:38;99773.63;;;8.12;100.00
2405;BME280;1213;43.206;27.922;2024-03-25T05:32:04;99767.78;;;8.09;100.00
2405;BME280;1213;43.206;27.922;2024-03-25T05:34:29;99766.91;;;8.08;100.00
2405;BME280;1213;43.206;27.922;2024-03-25T05:36:57;99762.88;;;8.04;100.00
2405;BME280;1213;43.206;27.922;2024-03-25T05:39:22;99759.97;;;7.96;100.00
2405;BME280;1213;43.206;27.922;2024-03-25T05:41:48;99753.78;;;7.97;100.00
2405;BME280;1213;43.206;27.922;2024-03-25T05:44:14;99744.59;;;7.91;100.00
2405;BME280;1213;43.206;27.922;2024-03-25T05:46:40;99730.28;;;7.84;100.00
2405;BME280;1213;43.206;27.922;2024-03-25T05:49:06;99727.97;;;7.92;100.00
2405;BME280;1213;43.206;27.922;2024-03-25T05:51:31;99738.44;;;7.92;100.00
2405;BME280;1213;43.206;27.922;2024-03-25T05:54:00;99726.66;;;7.87;100.00
2405;BME280;1213;43.206;27.922;2024-03-25T05:56:26;99742.41;;;7.85;100.00
2405;BME280;1213;43.206;27.922;2024-03-25T05:58:58;99733.66;;;7.86;100.00
2405;BME280;1213;43.206;27.922;2024-03-25T06:01:23;99732.72;;;7.87;100.00
2405;BME280;1213;43.206;27.922;2024-03-25T06:03:49;99746.00;;;7.84;100.00
2405;BME280;1213;43.206;27.922;2024-03-25T06:06:14;99743.38;;;7.84;100.00
2405;BME280;1213;43.206;27.922;2024-03-25T06:08:40;99753.50;;;7.89;100.00
2405;BME280;1213;43.206;27.922;2024-03-25T06:11:05;99745.38;;;7.81;100.00
2405;BME280;1213;43.206;27.922;2024-03-25T06:13:30;99750.81;;;7.77;100.00
2405;BME280;1213;43.206;27.922;2024-03-25T06:15:56;99755.31;;;7.75;100.00
2405;BME280;1213;43.206;27.922;2024-03-25T06:18:21;99765.78;;;7.75;100.00
2405;BME280;1213;43.206;27.922;2024-03-25T06:20:47;99747.47;;;7.75;100.00
2405;BME280;1213;43.206;27.922;2024-03-25T06:23:26;99748.03;;;7.68;100.00
2405;BME280;1213;43.206;27.922;2024-03-25T06:25:52;99758.28;;;7.71;100.00
2405;BME280;1213;43.206;27.922;2024-03-25T06:28:19;99757.66;;;7.67;100.00
2405;BME280;1213;43.206;27.922;2024-03-25T06:30:45;99741.13;;;7.67;100.00
2405;BME280;1213;43.206;27.922;2024-03-25T06:33:30;99750.22;;;7.61;100.00
2405;BME280;1213;43.206;27.922;2024-03-25T06:36:14;99759.66;;;7.64;100.00
2405;BME280;1213;43.206;27.922;2024-03-25T06:38:40;99760.38;;;7.66;100.00
2405;BME280;1213;43.206;27.922;2024-03-25T06:41:05;99777.31;;;7.73;100.00
2405;BME280;1213;43.206;27.922;2024-03-25T06:43:31;99780.94;;;7.70;100.00
2405;BME280;1213;43.206;27.922;2024-03-25T06:45:56;99781.59;;;7.74;100.00
2405;BME280;1213;43.206;27.922;2024-03-25T06:48:22;99797.59;;;7.69;100.00
2405;BME280;1213;43.206;27.922;2024-03-25T06:50:57;99794.06;;;7.58;100.00
2405;BME280;1213;43.206;27.922;2024-03-25T06:53:23;99807.03;;;7.46;100.00
2405;BME280;1213;43.206;27.922;2024-03-25T06:55:58;99798.69;;;7.41;100.00
2405;BME280;1213;43.206;27.922;2024-03-25T06:58:26;99802.03;;;7.31;100.00
2405;BME280;1213;43.206;27.922;2024-03-25T07:00:52;99807.56;;;7.13;100.00
2405;BME280;1213;43.206;27.922;2024-03-25T07:03:18;99804.94;;;7.01;100.00
2405;BME280;1213;43.206;27.922;2024-03-25T07:05:45;99815.38;;;6.88;100.00
2405;BME280;1213;43.206;27.922;2024-03-25T07:08:12;99812.41;;;6.80;100.00
2405;BME280;1213;43.206;27.922;2024-03-25T07:10:37;99829.34;;;6.74;100.00
2405;BME280;1213;43.206;27.922;2024-03-25T07:13:03;99816.91;;;6.65;100.00
2405;BME280;1213;43.206;27.922;2024-03-25T07:15:30;99825.34;;;6.68;100.00
2405;BME280;1213;43.206;27.922;2024-03-25T07:17:56;99843.63;;;6.68;100.00
2405;BME280;1213;43.206;27.922;2024-03-25T07:20:21;99851.00;;;6.62;100.00
2405;BME280;1213;43.206;27.922;2024-03-25T07:22:48;99859.88;;;6.59;100.00
2405;BME280;1213;43.206;27.922;2024-03-25T07:25:13;99872.03;;;6.46;100.00
2405;BME280;1213;43.206;27.922;2024-03-25T07:27:39;99879.50;;;6.38;100.00
2405;BME280;1213;43.206;27.922;2024-03-25T07:30:06;99887.00;;;6.30;100.00
2405;BME280;1213;43.206;27.922;2024-03-25T07:32:33;99867.44;;;6.23;100.00
2405;BME280;1213;43.206;27.922;2024-03-25T07:34:58;99870.97;;;6.22;100.00
2405;BME280;1213;43.206;27.922;2024-03-25T07:37:23;99887.47;;;6.22;100.00
2405;BME280;1213;43.206;27.922;2024-03-25T07:39:49;99879.34;;;6.27;100.00
2405;BME280;1213;43.206;27.922;2024-03-25T07:42:14;99890.97;;;6.35;100.00
2405;BME280;1213;43.206;27.922;2024-03-25T07:44:40;99890.22;;;6.33;100.00
2405;BME280;1213;43.206;27.922;2024-03-25T07:47:05;99900.19;;;6.27;100.00
2405;BME280;1213;43.206;27.922;2024-03-25T07:49:31;99903.22;;;6.21;100.00
2405;BME280;1213;43.206;27.922;2024-03-25T07:51:59;99906.19;;;6.29;100.00
2405;BME280;1213;43.206;27.922;2024-03-25T07:54:25;99909.63;;;6.29;100.00
2405;BME280;1213;43.206;27.922;2024-03-25T07:56:52;99912.03;;;6.32;100.00
2405;BME280;1213;43.206;27.922;2024-03-25T07:59:18;99905.88;;;6.33;100.00
2405;BME280;1213;43.206;27.922;2024-03-25T08:01:43;99914.28;;;6.24;100.00
2405;BME280;1213;43.206;27.922;2024-03-25T08:04:09;99927.78;;;6.17;100.00
2405;BME280;1213;43.206;27.922;2024-03-25T08:06:34;99932.53;;;6.10;100.00
2405;BME280;1213;43.206;27.922;2024-03-25T08:08:59;99925.94;;;6.04;100.00
2405;BME280;1213;43.206;27.922;2024-03-25T08:11:25;99928.06;;;6.12;100.00
2405;BME280;1213;43.206;27.922;2024-03-25T08:13:50;99925.19;;;6.17;100.00
2405;BME280;1213;43.206;27.922;2024-03-25T08:16:16;99938.44;;;6.14;100.00
2405;BME280;1213;43.206;27.922;2024-03-25T08:18:41;99927.53;;;6.07;100.00
2405;BME280;1213;43.206;27.922;2024-03-25T08:21:06;99929.56;;;6.02;100.00
2405;BME280;1213;43.206;27.922;2024-03-25T08:23:32;99928.63;;;6.17;100.00
2405;BME280;1213;43.206;27.922;2024-03-25T08:25:57;99930.50;;;6.15;100.00
2405;BME280;1213;43.206;27.922;2024-03-25T08:28:23;99937.13;;;6.06;100.00
2405;BME280;1213;43.206;27.922;2024-03-25T08:30:48;99943.81;;;5.96;100.00
2405;BME280;1213;43.206;27.922;2024-03-25T08:33:14;99939.84;;;6.05;100.00
2405;BME280;1213;43.206;27.922;2024-03-25T08:35:41;99942.59;;;6.02;100.00
2405;BME280;1213;43.206;27.922;2024-03-25T08:38:07;99949.50;;;6.03;100.00
2405;BME280;1213;43.206;27.922;2024-03-25T08:40:33;99956.94;;;6.09;100.00
2405;BME280;1213;43.206;27.922;2024-03-25T08:42:59;99948.84;;;6.28;100.00
2405;BME280;1213;43.206;27.922;2024-03-25T08:45:24;99953.84;;;6.45;100.00
2405;BME280;1213;43.206;27.922;2024-03-25T08:47:50;99952.22;;;6.57;100.00
2405;BME280;1213;43.206;27.922;2024-03-25T08:50:15;99953.38;;;6.80;100.00
2405;BME280;1213;43.206;27.922;2024-03-25T08:52:41;99945.00;;;7.02;100.00
2405;BME280;1213;43.206;27.922;2024-03-25T08:55:07;99948.72;;;7.24;100.00
2405;BME280;1213;43.206;27.922;2024-03-25T08:57:32;99957.31;;;7.39;100.00
2405;BME280;1213;43.206;27.922;2024-03-25T08:59:57;99958.41;;;7.49;100.00
2405;BME280;1213;43.206;27.922;2024-03-25T09:02:23;99958.59;;;7.46;100.00
2405;BME280;1213;43.206;27.922;2024-03-25T09:04:48;99963.19;;;7.56;100.00
2405;BME280;1213;43.206;27.922;2024-03-25T09:07:14;99965.09;;;7.54;100.00
2405;BME280;1213;43.206;27.922;2024-03-25T09:09:40;99966.03;;;7.53;100.00
2405;BME280;1213;43.206;27.922;2024-03-25T09:12:24;99979.09;;;7.53;100.00
2405;BME280;1213;43.206;27.922;2024-03-25T09:14:49;99984.53;;;7.49;100.00
2405;BME280;1213;43.206;27.922;2024-03-25T09:17:16;99973.66;;;7.56;100.00
2405;BME280;1213;43.206;27.922;2024-03-25T09:19:42;99979.25;;;7.64;100.00
2405;BME280;1213;43.206;27.922;2024-03-25T09:22:08;99987.16;;;7.49;100.00
2405;BME280;1213;43.206;27.922;2024-03-25T09:24:33;99983.09;;;7.58;100.00
2405;BME280;1213;43.206;27.922;2024-03-25T09:26:59;99984.16;;;7.68;100.00
2405;BME280;1213;43.206;27.922;2024-03-25T09:29:24;99985.91;;;7.68;100.00
2405;BME280;1213;43.206;27.922;2024-03-25T09:31:50;99987.06;;;7.76;100.00
2405;BME280;1213;43.206;27.922;2024-03-25T09:34:15;99990.66;;;7.88;100.00
2405;BME280;1213;43.206;27.922;2024-03-25T09:36:41;100006.34;;;7.88;100.00
2405;BME280;1213;43.206;27.922;2024-03-25T09:39:06;100022.66;;;8.30;100.00
2405;BME280;1213;43.206;27.922;2024-03-25T09:41:34;100013.03;;;8.56;100.00
2405;BME280;1213;43.206;27.922;2024-03-25T09:44:01;100017.50;;;8.67;100.00
2405;BME280;1213;43.206;27.922;2024-03-25T09:46:30;100002.06;;;8.87;100.00
2405;BME280;1213;43.206;27.922;2024-03-25T09:48:55;100026.94;;;9.06;100.00
2405;BME280;1213;43.206;27.922;2024-03-25T09:51:21;100027.69;;;9.08;100.00
2405;BME280;1213;43.206;27.922;2024-03-25T09:53:47;100031.44;;;9.28;100.00
2405;BME280;1213;43.206;27.922;2024-03-25T09:56:13;100030.50;;;9.53;100.00
2405;BME280;1213;43.206;27.922;2024-03-25T09:58:39;100046.81;;;9.45;100.00
2405;BME280;1213;43.206;27.922;2024-03-25T10:01:05;100041.00;;;9.53;100.00
2405;BME280;1213;43.206;27.922;2024-03-25T10:03:31;100026.38;;;9.61;100.00
2405;BME280;1213;43.206;27.922;2024-03-25T10:05:57;100032.25;;;9.41;100.00
2405;BME280;1213;43.206;27.922;2024-03-25T10:08:23;100043.50;;;9.54;100.00
2405;BME280;1213;43.206;27.922;2024-03-25T10:10:51;100053.16;;;9.89;100.00
2405;BME280;1213;43.206;27.922;2024-03-25T10:13:17;100041.09;;;9.86;100.00
2405;BME280;1213;43.206;27.922;2024-03-25T10:15:42;100049.88;;;9.74;100.00
2405;BME280;1213;43.206;27.922;2024-03-25T10:18:11;100036.59;;;9.99;100.00
2405;BME280;1213;43.206;27.922;2024-03-25T10:20:37;100041.78;;;9.77;100.00
2405;BME280;1213;43.206;27.922;2024-03-25T10:23:02;100049.59;;;10.01;100.00
2405;BME280;1213;43.206;27.922;2024-03-25T10:25:30;100051.41;;;10.12;100.00
2405;BME280;1213;43.206;27.922;2024-03-25T10:27:57;100049.03;;;10.09;100.00
2405;BME280;1213;43.206;27.922;2024-03-25T10:30:24;100040.56;;;10.16;100.00
2405;BME280;1213;43.206;27.922;2024-03-25T10:33:03;100034.53;;;10.49;100.00
2405;BME280;1213;43.206;27.922;2024-03-25T10:35:34;100040.81;;;11.03;100.00
2405;BME280;1213;43.206;27.922;2024-03-25T10:38:01;100021.09;;;12.14;100.00
2405;BME280;1213;43.206;27.922;2024-03-25T10:40:29;100027.66;;;11.99;100.00
2405;BME280;1213;43.206;27.922;2024-03-25T10:45:33;100022.47;;;12.70;100.00
2405;BME280;1213;43.206;27.922;2024-03-25T10:48:07;100015.13;;;12.43;100.00
2405;BME280;1213;43.206;27.922;2024-03-25T10:50:36;100019.75;;;12.20;100.00
2405;BME280;1213;43.206;27.922;2024-03-25T10:53:04;100021.34;;;12.32;100.00
2405;BME280;1213;43.206;27.922;2024-03-25T10:55:31;100014.81;;;12.36;100.00
2405;BME280;1213;43.206;27.922;2024-03-25T10:57:57;100042.56;;;11.89;100.00
2405;BME280;1213;43.206;27.922;2024-03-25T11:00:22;100041.69;;;11.67;100.00
2405;BME280;1213;43.206;27.922;2024-03-25T11:02:48;100045.78;;;11.60;100.00
2405;BME280;1213;43.206;27.922;2024-03-25T11:05:15;100061.72;;;11.48;100.00
2405;BME280;1213;43.206;27.922;2024-03-25T11:07:41;100063.13;;;11.20;100.00
2405;BME280;1213;43.206;27.922;2024-03-25T11:10:08;100068.63;;;11.28;100.00
2405;BME280;1213;43.206;27.922;2024-03-25T11:12:40;100085.34;;;11.27;100.00
2405;BME280;1213;43.206;27.922;2024-03-25T11:15:06;100079.28;;;11.47;100.00
2405;BME280;1213;43.206;27.922;2024-03-25T11:17:36;100081.66;;;12.14;100.00
2405;BME280;1213;43.206;27.922;2024-03-25T11:20:12;100076.44;;;11.82;100.00
2405;BME280;1213;43.206;27.922;2024-03-25T11:22:51;100087.69;;;12.47;100.00
2405;BME280;1213;43.206;27.922;2024-03-25T11:25:17;100078.91;;;12.16;100.00
2405;BME280;1213;43.206;27.922;2024-03-25T11:27:44;100082.13;;;11.23;100.00
2405;BME280;1213;43.206;27.922;2024-03-25T11:30:11;100080.59;;;11.53;100.00
2405;BME280;1213;43.206;27.922;2024-03-25T11:33:05;100065.28;;;11.90;100.00
2405;BME280;1213;43.206;27.922;2024-03-25T11:35:37;100065.22;;;11.80;100.00
2405;BME280;1213;43.206;27.922;2024-03-25T11:38:02;100074.72;;;11.92;100.00
2405;BME280;1213;43.206;27.922;2024-03-25T11:40:28;100078.72;;;11.44;100.00
2405;BME280;1213;43.206;27.922;2024-03-25T11:42:54;100072.84;;;11.51;100.00
2405;BME280;1213;43.206;27.922;2024-03-25T11:45:20;100085.38;;;11.59;100.00
2405;BME280;1213;43.206;27.922;2024-03-25T11:47:48;100085.25;;;11.60;100.00
2405;BME280;1213;43.206;27.922;2024-03-25T11:50:16;100077.41;;;11.38;100.00
2405;BME280;1213;43.206;27.922;2024-03-25T11:52:41;100074.09;;;11.36;100.00
2405;BME280;1213;43.206;27.922;2024-03-25T11:55:08;100082.38;;;11.20;100.00
2405;BME280;1213;43.206;27.922;2024-03-25T11:57:34;100091.31;;;11.18;100.00
2405;BME280;1213;43.206;27.922;2024-03-25T12:00:01;100092.44;;;11.47;100.00
2405;BME280;1213;43.206;27.922;2024-03-25T12:02:28;100090.16;;;13.10;100.00
2405;BME280;1213;43.206;27.922;2024-03-25T12:04:53;100087.47;;;13.59;100.00
2405;BME280;1213;43.206;27.922;2024-03-25T12:07:19;100077.19;;;14.71;100.00
2405;BME280;1213;43.206;27.922;2024-03-25T12:09:44;100096.81;;;17.08;99.33
2405;BME280;1213;43.206;27.922;2024-03-25T12:12:28;100084.44;;;15.69;92.41
2405;BME280;1213;43.206;27.922;2024-03-25T12:14:55;100110.84;;;13.64;100.00
2405;BME280;1213;43.206;27.922;2024-03-25T12:17:22;100129.22;;;12.34;100.00
2405;BME280;1213;43.206;27.922;2024-03-25T12:20:07;100115.75;;;12.16;100.00
2405;BME280;1213;43.206;27.922;2024-03-25T12:22:35;100102.63;;;12.67;100.00
2405;BME280;1213;43.206;27.922;2024-03-25T12:25:01;100120.28;;;12.76;100.00
2405;BME280;1213;43.206;27.922;2024-03-25T12:27:30;100123.56;;;12.69;100.00
2405;BME280;1213;43.206;27.922;2024-03-25T12:30:05;100124.94;;;12.63;100.00
2405;BME280;1213;43.206;27.922;2024-03-25T12:32:39;100140.63;;;12.44;100.00
2405;BME280;1213;43.206;27.922;2024-03-25T12:35:10;100140.78;;;11.78;100.00
2405;BME280;1213;43.206;27.922;2024-03-25T12:37:37;100143.97;;;12.46;100.00
2405;BME280;1213;43.206;27.922;2024-03-25T12:40:04;100155.97;;;13.11;100.00
2405;BME280;1213;43.206;27.922;2024-03-25T12:42:32;100157.50;;;12.83;100.00
2405;BME280;1213;43.206;27.922;2024-03-25T12:44:57;100165.63;;;12.29;100.00
2405;BME280;1213;43.206;27.922;2024-03-25T12:47:23;100166.31;;;11.66;100.00
2405;BME280;1213;43.206;27.922;2024-03-25T12:49:48;100172.16;;;11.70;100.00
2405;BME280;1213;43.206;27.922;2024-03-25T12:52:14;100179.38;;;12.11;100.00
2405;BME280;1213;43.206;27.922;2024-03-25T12:54:39;100172.09;;;12.87;100.00
2405;BME280;1213;43.206;27.922;2024-03-25T12:57:07;100160.72;;;13.17;100.00
2405;BME280;1213;43.206;27.922;2024-03-25T12:59:32;100157.22;;;13.57;100.00
2405;BME280;1213;43.206;27.922;2024-03-25T13:01:58;100155.47;;;12.96;100.00
2405;BME280;1213;43.206;27.922;2024-03-25T13:04:25;100151.97;;;14.05;100.00